sensor_id;sensor_type;location;lat;lon;timestamp;temperature;humidity
39825;DHT22;25503;52.532;13.640;2023-07-20T00:01:54;17.90;99.90
39825;DHT22;25503;52.532;13.640;2023-07-20T00:04:20;17.90;99.90
39825;DHT22;25503;52.532;13.640;2023-07-20T00:06:46;17.90;99.90
39825;DHT22;25503;52.532;13.640;2023-07-20T00:09:11;17.90;99.90
39825;DHT22;25503;52.532;13.640;2023-07-20T00:11:37;17.90;99.90
39825;DHT22;25503;52.532;13.640;2023-07-20T00:14:05;17.90;99.90
39825;DHT22;25503;52.532;13.640;2023-07-20T00:16:30;17.90;99.90
39825;DHT22;25503;52.532;13.640;2023-07-20T00:18:56;17.90;99.90
39825;DHT22;25503;52.532;13.640;2023-07-20T00:21:21;17.90;99.90
39825;DHT22;25503;52.532;13.640;2023-07-20T00:23:47;17.90;99.90
39825;DHT22;25503;52.532;13.640;2023-07-20T00:26:12;17.80;99.90
39825;DHT22;25503;52.532;13.640;2023-07-20T00:28:38;17.70;99.90
39825;DHT22;25503;52.532;13.640;2023-07-20T00:31:04;17.60;99.90
39825;DHT22;25503;52.532;13.640;2023-07-20T00:33:29;17.50;99.90
39825;DHT22;25503;52.532;13.640;2023-07-20T00:35:55;17.40;99.90
39825;DHT22;25503;52.532;13.640;2023-07-20T00:38:21;17.30;99.90
39825;DHT22;25503;52.532;13.640;2023-07-20T00:40:46;17.30;99.90
39825;DHT22;25503;52.532;13.640;2023-07-20T00:43:12;17.30;99.90
39825;DHT22;25503;52.532;13.640;2023-07-20T00:45:38;17.30;99.90
39825;DHT22;25503;52.532;13.640;2023-07-20T00:48:04;17.30;99.90
39825;DHT22;25503;52.532;13.640;2023-07-20T00:50:31;17.30;99.90
39825;DHT22;25503;52.532;13.640;2023-07-20T00:52:58;17.30;99.90
39825;DHT22;25503;52.532;13.640;2023-07-20T00:55:24;17.30;99.90
39825;DHT22;25503;52.532;13.640;2023-07-20T00:57:50;17.20;99.90
39825;DHT22;25503;52.532;13.640;2023-07-20T01:00:16;17.20;99.90
39825;DHT22;25503;52.532;13.640;2023-07-20T01:02:42;17.20;99.90
39825;DHT22;25503;52.532;13.640;2023-07-20T01:05:09;17.20;99.90
39825;DHT22;25503;52.532;13.640;2023-07-20T01:07:38;17.20;99.90
39825;DHT22;25503;52.532;13.640;2023-07-20T01:10:17;17.20;99.90
39825;DHT22;25503;52.532;13.640;2023-07-20T01:12:49;17.20;99.90
39825;DHT22;25503;52.532;13.640;2023-07-20T01:15:16;17.10;99.90
39825;DHT22;25503;52.532;13.640;2023-07-20T01:17:42;17.10;99.90
39825;DHT22;25503;52.532;13.640;2023-07-20T01:20:12;17.10;99.90
39825;DHT22;25503;52.532;13.640;2023-07-20T01:26:12;17.00;99.90
39825;DHT22;25503;52.532;13.640;2023-07-20T01:31:25;16.90;99.90
39825;DHT22;25503;52.532;13.640;2023-07-20T01:33:54;16.90;99.90
39825;DHT22;25503;52.532;13.640;2023-07-20T01:36:22;16.80;99.90
39825;DHT22;25503;52.532;13.640;2023-07-20T01:38:49;16.80;99.90
39825;DHT22;25503;52.532;13.640;2023-07-20T01:41:15;16.70;99.90
39825;DHT22;25503;52.532;13.640;2023-07-20T01:43:42;16.60;99.90
39825;DHT22;25503;52.532;13.640;2023-07-20T01:46:07;16.60;99.90
39825;DHT22;25503;52.532;13.640;2023-07-20T01:48:33;16.60;99.90
39825;DHT22;25503;52.532;13.640;2023-07-20T01:50:59;16.40;99.90
39825;DHT22;25503;52.532;13.640;2023-07-20T01:53:24;16.40;99.90
39825;DHT22;25503;52.532;13.640;2023-07-20T01:55:53;16.40;99.90
39825;DHT22;25503;52.532;13.640;2023-07-20T01:58:19;16.30;99.90
39825;DHT22;25503;52.532;13.640;2023-07-20T02:00:44;16.40;99.90
39825;DHT22;25503;52.532;13.640;2023-07-20T02:03:10;16.40;99.90
39825;DHT22;25503;52.532;13.640;2023-07-20T02:05:37;16.40;99.90
39825;DHT22;25503;52.532;13.640;2023-07-20T02:08:03;16.40;99.90
39825;DHT22;25503;52.532;13.640;2023-07-20T02:10:29;16.40;99.90
39825;DHT22;25503;52.532;13.640;2023-07-20T02:12:54;16.40;99.90
39825;DHT22;25503;52.532;13.640;2023-07-20T02:15:20;16.40;99.90
39825;DHT22;25503;52.532;13.640;2023-07-20T02:17:46;16.40;99.90
39825;DHT22;25503;52.532;13.640;2023-07-20T02:20:12;16.40;99.90
39825;DHT22;25503;52.532;13.640;2023-07-20T02:22:38;16.40;99.90
39825;DHT22;25503;52.532;13.640;2023-07-20T02:25:05;16.30;99.90
39825;DHT22;25503;52.532;13.640;2023-07-20T02:27:35;16.30;99.90
39825;DHT22;25503;52.532;13.640;2023-07-20T02:30:01;16.30;99.90
39825;DHT22;25503;52.532;13.640;2023-07-20T02:32:28;16.30;99.90
39825;DHT22;25503;52.532;13.640;2023-07-20T02:34:53;16.30;99.90
39825;DHT22;25503;52.532;13.640;2023-07-20T02:37:19;16.30;99.90
39825;DHT22;25503;52.532;13.640;2023-07-20T02:39:44;16.30;99.90
39825;DHT22;25503;52.532;13.640;2023-07-20T02:42:10;16.30;99.90
39825;DHT22;25503;52.532;13.640;2023-07-20T02:44:36;16.30;99.90
39825;DHT22;25503;52.532;13.640;2023-07-20T02:47:01;16.20;99.90
39825;DHT22;25503;52.532;13.640;2023-07-20T02:49:27;16.20;99.90
39825;DHT22;25503;52.532;13.640;2023-07-20T02:51:53;16.20;99.90
39825;DHT22;25503;52.532;13.640;2023-07-20T02:54:19;16.10;99.90
39825;DHT22;25503;52.532;13.640;2023-07-20T02:56:45;16.10;99.90
39825;DHT22;25503;52.532;13.640;2023-07-20T02:59:10;16.10;99.90
39825;DHT22;25503;52.532;13.640;2023-07-20T03:01:36;16.10;99.90
39825;DHT22;25503;52.532;13.640;2023-07-20T03:04:02;16.10;99.90
39825;DHT22;25503;52.532;13.640;2023-07-20T03:06:27;16.10;99.90
39825;DHT22;25503;52.532;13.640;2023-07-20T03:08:53;16.10;99.90
39825;DHT22;25503;52.532;13.640;2023-07-20T03:11:19;16.10;99.90
39825;DHT22;25503;52.532;13.640;2023-07-20T03:13:46;16.10;99.90
39825;DHT22;25503;52.532;13.640;2023-07-20T03:16:13;16.10;99.90
39825;DHT22;25503;52.532;13.640;2023-07-20T03:18:41;16.10;99.90
39825;DHT22;25503;52.532;13.640;2023-07-20T03:21:08;16.00;99.90
39825;DHT22;25503;52.532;13.640;2023-07-20T03:23:34;16.00;99.90
39825;DHT22;25503;52.532;13.640;2023-07-20T03:26:00;15.90;99.90
39825;DHT22;25503;52.532;13.640;2023-07-20T03:28:26;15.90;99.90
39825;DHT22;25503;52.532;13.640;2023-07-20T03:30:55;15.90;99.90
39825;DHT22;25503;52.532;13.640;2023-07-20T03:33:26;15.90;99.90
39825;DHT22;25503;52.532;13.640;2023-07-20T03:35:52;15.90;99.90
39825;DHT22;25503;52.532;13.640;2023-07-20T03:38:18;15.90;99.90
39825;DHT22;25503;52.532;13.640;2023-07-20T03:40:54;15.90;99.90
39825;DHT22;25503;52.532;13.640;2023-07-20T03:43:21;15.90;99.90
39825;DHT22;25503;52.532;13.640;2023-07-20T03:45:47;15.90;99.90
39825;DHT22;25503;52.532;13.640;2023-07-20T03:48:17;15.90;99.90
39825;DHT22;25503;52.532;13.640;2023-07-20T03:50:47;15.90;99.90
39825;DHT22;25503;52.532;13.640;2023-07-20T03:53:14;16.00;99.90
39825;DHT22;25503;52.532;13.640;2023-07-20T03:55:40;15.90;99.90
39825;DHT22;25503;52.532;13.640;2023-07-20T03:58:07;16.00;99.90
39825;DHT22;25503;52.532;13.640;2023-07-20T04:00:34;16.00;99.90
39825;DHT22;25503;52.532;13.640;2023-07-20T04:02:59;16.00;99.90
39825;DHT22;25503;52.532;13.640;2023-07-20T04:05:25;16.00;99.90
39825;DHT22;25503;52.532;13.640;2023-07-20T04:07:51;16.00;99.90
39825;DHT22;25503;52.532;13.640;2023-07-20T04:10:17;16.00;99.90
39825;DHT22;25503;52.532;13.640;2023-07-20T04:12:44;16.00;99.90
39825;DHT22;25503;52.532;13.640;2023-07-20T04:15:10;16.00;99.90
39825;DHT22;25503;52.532;13.640;2023-07-20T04:17:36;16.00;99.90
39825;DHT22;25503;52.532;13.640;2023-07-20T04:20:01;15.90;99.90
39825;DHT22;25503;52.532;13.640;2023-07-20T04:22:28;16.00;99.90
39825;DHT22;25503;52.532;13.640;2023-07-20T04:24:54;16.00;99.90
39825;DHT22;25503;52.532;13.640;2023-07-20T04:27:19;16.00;99.90
39825;DHT22;25503;52.532;13.640;2023-07-20T04:29:45;16.00;99.90
39825;DHT22;25503;52.532;13.640;2023-07-20T04:32:10;16.00;99.90
39825;DHT22;25503;52.532;13.640;2023-07-20T04:34:36;16.00;99.90
39825;DHT22;25503;52.532;13.640;2023-07-20T04:37:06;16.00;99.90
39825;DHT22;25503;52.532;13.640;2023-07-20T04:39:31;16.00;99.90
39825;DHT22;25503;52.532;13.640;2023-07-20T04:41:57;16.00;99.90
39825;DHT22;25503;52.532;13.640;2023-07-20T04:44:23;16.00;99.90
39825;DHT22;25503;52.532;13.640;2023-07-20T04:46:48;16.00;99.90
39825;DHT22;25503;52.532;13.640;2023-07-20T04:49:14;16.00;99.90
39825;DHT22;25503;52.532;13.640;2023-07-20T04:51:40;16.00;99.90
39825;DHT22;25503;52.532;13.640;2023-07-20T04:54:06;16.00;99.90
39825;DHT22;25503;52.532;13.640;2023-07-20T04:56:31;16.00;99.90
39825;DHT22;25503;52.532;13.640;2023-07-20T04:58:57;16.00;99.90
39825;DHT22;25503;52.532;13.640;2023-07-20T05:01:23;15.90;99.90
39825;DHT22;25503;52.532;13.640;2023-07-20T05:03:48;16.00;99.90
39825;DHT22;25503;52.532;13.640;2023-07-20T05:06:15;16.00;99.90
39825;DHT22;25503;52.532;13.640;2023-07-20T05:08:40;16.00;99.90
39825;DHT22;25503;52.532;13.640;2023-07-20T05:11:06;16.00;99.90
39825;DHT22;25503;52.532;13.640;2023-07-20T05:13:33;16.00;99.90
39825;DHT22;25503;52.532;13.640;2023-07-20T05:15:58;16.00;99.90
39825;DHT22;25503;52.532;13.640;2023-07-20T05:18:24;16.00;99.90
39825;DHT22;25503;52.532;13.640;2023-07-20T05:20:51;16.00;99.90
39825;DHT22;25503;52.532;13.640;2023-07-20T05:23:19;16.10;99.90
39825;DHT22;25503;52.532;13.640;2023-07-20T05:25:45;16.10;99.90
39825;DHT22;25503;52.532;13.640;2023-07-20T05:28:11;16.20;99.90
39825;DHT22;25503;52.532;13.640;2023-07-20T05:30:37;16.20;99.90
39825;DHT22;25503;52.532;13.640;2023-07-20T05:33:02;16.20;99.90
39825;DHT22;25503;52.532;13.640;2023-07-20T05:35:28;16.20;99.90
39825;DHT22;25503;52.532;13.640;2023-07-20T05:37:54;16.20;99.90
39825;DHT22;25503;52.532;13.640;2023-07-20T05:40:19;16.30;99.90
39825;DHT22;25503;52.532;13.640;2023-07-20T05:42:47;16.30;99.90
39825;DHT22;25503;52.532;13.640;2023-07-20T05:45:14;16.30;99.90
39825;DHT22;25503;52.532;13.640;2023-07-20T05:47:41;16.40;99.90
39825;DHT22;25503;52.532;13.640;2023-07-20T05:50:07;16.40;99.90
39825;DHT22;25503;52.532;13.640;2023-07-20T05:52:32;16.40;99.90
39825;DHT22;25503;52.532;13.640;2023-07-20T05:54:58;16.50;99.90
39825;DHT22;25503;52.532;13.640;2023-07-20T05:57:24;16.60;99.90
39825;DHT22;25503;52.532;13.640;2023-07-20T05:59:49;16.70;99.90
39825;DHT22;25503;52.532;13.640;2023-07-20T06:02:16;16.80;99.90
39825;DHT22;25503;52.532;13.640;2023-07-20T06:04:42;16.90;99.90
39825;DHT22;25503;52.532;13.640;2023-07-20T06:07:07;16.90;99.90
39825;DHT22;25503;52.532;13.640;2023-07-20T06:09:33;17.00;99.90
39825;DHT22;25503;52.532;13.640;2023-07-20T06:11:59;17.10;99.90
39825;DHT22;25503;52.532;13.640;2023-07-20T06:14:25;17.10;99.90
39825;DHT22;25503;52.532;13.640;2023-07-20T06:16:50;17.10;99.90
39825;DHT22;25503;52.532;13.640;2023-07-20T06:19:16;17.20;99.90
39825;DHT22;25503;52.532;13.640;2023-07-20T06:21:42;17.20;99.90
39825;DHT22;25503;52.532;13.640;2023-07-20T06:24:07;17.30;99.90
39825;DHT22;25503;52.532;13.640;2023-07-20T06:26:33;17.30;99.90
39825;DHT22;25503;52.532;13.640;2023-07-20T06:29:07;17.40;99.90
39825;DHT22;25503;52.532;13.640;2023-07-20T06:31:35;17.40;99.90
39825;DHT22;25503;52.532;13.640;2023-07-20T06:34:01;17.50;99.90
39825;DHT22;25503;52.532;13.640;2023-07-20T06:36:27;17.50;99.90
39825;DHT22;25503;52.532;13.640;2023-07-20T06:38:53;17.50;99.90
39825;DHT22;25503;52.532;13.640;2023-07-20T06:41:19;17.50;99.90
39825;DHT22;25503;52.532;13.640;2023-07-20T06:43:45;17.50;99.90
39825;DHT22;25503;52.532;13.640;2023-07-20T06:46:11;17.50;99.90
39825;DHT22;25503;52.532;13.640;2023-07-20T06:48:36;17.50;99.90
39825;DHT22;25503;52.532;13.640;2023-07-20T06:51:02;17.50;99.90
39825;DHT22;25503;52.532;13.640;2023-07-20T06:53:31;17.50;99.90
39825;DHT22;25503;52.532;13.640;2023-07-20T06:55:57;17.40;99.90
39825;DHT22;25503;52.532;13.640;2023-07-20T06:58:25;17.40;99.90
39825;DHT22;25503;52.532;13.640;2023-07-20T07:00:51;17.30;99.90
39825;DHT22;25503;52.532;13.640;2023-07-20T07:03:17;17.30;99.90
39825;DHT22;25503;52.532;13.640;2023-07-20T07:05:43;17.30;99.90
39825;DHT22;25503;52.532;13.640;2023-07-20T07:08:11;17.20;99.90
39825;DHT22;25503;52.532;13.640;2023-07-20T07:10:37;17.20;99.90
39825;DHT22;25503;52.532;13.640;2023-07-20T07:13:03;17.20;99.90
39825;DHT22;25503;52.532;13.640;2023-07-20T07:15:29;17.20;99.90
39825;DHT22;25503;52.532;13.640;2023-07-20T07:17:55;17.20;99.90
39825;DHT22;25503;52.532;13.640;2023-07-20T07:20:22;17.10;99.90
39825;DHT22;25503;52.532;13.640;2023-07-20T07:22:47;17.20;99.90
39825;DHT22;25503;52.532;13.640;2023-07-20T07:25:13;17.30;99.90
39825;DHT22;25503;52.532;13.640;2023-07-20T07:27:39;17.30;99.90
39825;DHT22;25503;52.532;13.640;2023-07-20T07:30:05;17.30;99.90
39825;DHT22;25503;52.532;13.640;2023-07-20T07:32:31;17.40;99.90
39825;DHT22;25503;52.532;13.640;2023-07-20T07:34:57;17.50;99.90
39825;DHT22;25503;52.532;13.640;2023-07-20T07:37:26;17.60;99.90
39825;DHT22;25503;52.532;13.640;2023-07-20T07:39:51;17.80;99.90
39825;DHT22;25503;52.532;13.640;2023-07-20T07:42:17;17.90;99.90
39825;DHT22;25503;52.532;13.640;2023-07-20T07:44:44;18.00;99.90
39825;DHT22;25503;52.532;13.640;2023-07-20T07:47:10;18.10;99.90
39825;DHT22;25503;52.532;13.640;2023-07-20T07:49:35;18.10;99.90
39825;DHT22;25503;52.532;13.640;2023-07-20T07:52:01;18.10;99.90
39825;DHT22;25503;52.532;13.640;2023-07-20T07:54:29;18.20;99.90
39825;DHT22;25503;52.532;13.640;2023-07-20T07:56:55;18.20;99.90
39825;DHT22;25503;52.532;13.640;2023-07-20T07:59:21;18.20;99.90
39825;DHT22;25503;52.532;13.640;2023-07-20T08:01:46;18.30;99.90
39825;DHT22;25503;52.532;13.640;2023-07-20T08:04:12;18.40;99.90
39825;DHT22;25503;52.532;13.640;2023-07-20T08:06:38;18.40;99.90
39825;DHT22;25503;52.532;13.640;2023-07-20T08:09:04;18.50;99.90
39825;DHT22;25503;52.532;13.640;2023-07-20T08:11:30;18.60;99.90
39825;DHT22;25503;52.532;13.640;2023-07-20T08:14:01;18.70;99.90
39825;DHT22;25503;52.532;13.640;2023-07-20T08:16:27;18.80;99.90
39825;DHT22;25503;52.532;13.640;2023-07-20T08:18:53;18.90;99.90
39825;DHT22;25503;52.532;13.640;2023-07-20T08:21:18;18.90;99.90
39825;DHT22;25503;52.532;13.640;2023-07-20T08:23:44;19.00;99.90
39825;DHT22;25503;52.532;13.640;2023-07-20T08:26:10;19.00;99.90
39825;DHT22;25503;52.532;13.640;2023-07-20T08:28:35;19.00;99.90
39825;DHT22;25503;52.532;13.640;2023-07-20T08:31:01;19.10;99.90
39825;DHT22;25503;52.532;13.640;2023-07-20T08:33:28;19.40;99.90
39825;DHT22;25503;52.532;13.640;2023-07-20T08:35:55;19.60;99.90
39825;DHT22;25503;52.532;13.640;2023-07-20T08:38:21;19.70;99.90
39825;DHT22;25503;52.532;13.640;2023-07-20T08:40:47;19.80;99.90
39825;DHT22;25503;52.532;13.640;2023-07-20T08:43:14;19.80;99.90
39825;DHT22;25503;52.532;13.640;2023-07-20T08:45:42;19.70;99.90
39825;DHT22;25503;52.532;13.640;2023-07-20T08:48:11;19.70;99.90
39825;DHT22;25503;52.532;13.640;2023-07-20T08:50:38;19.60;99.90
39825;DHT22;25503;52.532;13.640;2023-07-20T08:53:04;19.50;99.90
39825;DHT22;25503;52.532;13.640;2023-07-20T08:55:30;19.50;99.90
39825;DHT22;25503;52.532;13.640;2023-07-20T08:58:00;19.50;99.90
39825;DHT22;25503;52.532;13.640;2023-07-20T09:00:27;19.70;99.90
39825;DHT22;25503;52.532;13.640;2023-07-20T09:02:55;19.90;99.90
39825;DHT22;25503;52.532;13.640;2023-07-20T09:05:23;20.00;99.90
39825;DHT22;25503;52.532;13.640;2023-07-20T09:07:49;20.00;99.90
39825;DHT22;25503;52.532;13.640;2023-07-20T09:10:15;19.90;99.90
39825;DHT22;25503;52.532;13.640;2023-07-20T09:12:42;19.80;99.90
39825;DHT22;25503;52.532;13.640;2023-07-20T09:15:10;19.70;99.90
39825;DHT22;25503;52.532;13.640;2023-07-20T09:17:36;19.50;99.90
39825;DHT22;25503;52.532;13.640;2023-07-20T09:20:08;19.40;99.90
39825;DHT22;25503;52.532;13.640;2023-07-20T09:22:39;19.40;99.90
39825;DHT22;25503;52.532;13.640;2023-07-20T09:25:14;19.60;99.90
39825;DHT22;25503;52.532;13.640;2023-07-20T09:27:48;19.70;99.90
39825;DHT22;25503;52.532;13.640;2023-07-20T09:30:15;19.90;99.90
39825;DHT22;25503;52.532;13.640;2023-07-20T09:32:42;20.10;99.90
39825;DHT22;25503;52.532;13.640;2023-07-20T09:35:13;20.30;99.90
39825;DHT22;25503;52.532;13.640;2023-07-20T09:37:40;20.40;99.90
39825;DHT22;25503;52.532;13.640;2023-07-20T09:40:07;20.60;99.90
39825;DHT22;25503;52.532;13.640;2023-07-20T09:42:36;20.70;99.90
39825;DHT22;25503;52.532;13.640;2023-07-20T09:45:02;21.00;99.90
39825;DHT22;25503;52.532;13.640;2023-07-20T09:47:28;21.00;99.90
39825;DHT22;25503;52.532;13.640;2023-07-20T09:50:00;21.20;99.90
39825;DHT22;25503;52.532;13.640;2023-07-20T09:52:26;21.20;99.90
39825;DHT22;25503;52.532;13.640;2023-07-20T09:54:52;21.40;99.90
39825;DHT22;25503;52.532;13.640;2023-07-20T09:57:21;21.30;99.90
39825;DHT22;25503;52.532;13.640;2023-07-20T09:59:47;21.30;99.90
39825;DHT22;25503;52.532;13.640;2023-07-20T10:02:43;21.40;99.90
39825;DHT22;25503;52.532;13.640;2023-07-20T10:05:11;21.20;99.90
39825;DHT22;25503;52.532;13.640;2023-07-20T10:07:44;21.10;99.90
39825;DHT22;25503;52.532;13.640;2023-07-20T10:10:11;21.00;99.90
39825;DHT22;25503;52.532;13.640;2023-07-20T10:12:39;21.00;99.90
39825;DHT22;25503;52.532;13.640;2023-07-20T10:15:09;20.80;99.90
39825;DHT22;25503;52.532;13.640;2023-07-20T10:17:44;20.70;99.90
39825;DHT22;25503;52.532;13.640;2023-07-20T10:20:16;20.60;99.90
39825;DHT22;25503;52.532;13.640;2023-07-20T10:22:44;20.40;99.90
39825;DHT22;25503;52.532;13.640;2023-07-20T10:25:11;20.30;99.90
39825;DHT22;25503;52.532;13.640;2023-07-20T10:27:38;20.20;99.90
39825;DHT22;25503;52.532;13.640;2023-07-20T10:30:05;20.10;99.90
39825;DHT22;25503;52.532;13.640;2023-07-20T10:32:31;20.00;99.90
39825;DHT22;25503;52.532;13.640;2023-07-20T10:34:57;20.00;99.90
39825;DHT22;25503;52.532;13.640;2023-07-20T10:37:45;19.90;99.90
39825;DHT22;25503;52.532;13.640;2023-07-20T10:40:33;19.90;99.90
39825;DHT22;25503;52.532;13.640;2023-07-20T10:43:07;19.80;99.90
39825;DHT22;25503;52.532;13.640;2023-07-20T10:48:06;19.90;99.90
39825;DHT22;25503;52.532;13.640;2023-07-20T10:50:35;19.90;99.90
39825;DHT22;25503;52.532;13.640;2023-07-20T10:53:10;20.10;99.90
39825;DHT22;25503;52.532;13.640;2023-07-20T10:55:36;20.20;99.90
39825;DHT22;25503;52.532;13.640;2023-07-20T10:58:09;20.30;99.90
39825;DHT22;25503;52.532;13.640;2023-07-20T11:00:36;20.40;99.90
39825;DHT22;25503;52.532;13.640;2023-07-20T11:03:02;20.50;99.90
39825;DHT22;25503;52.532;13.640;2023-07-20T11:05:38;20.50;99.90
39825;DHT22;25503;52.532;13.640;2023-07-20T11:08:09;20.50;99.90
39825;DHT22;25503;52.532;13.640;2023-07-20T11:10:35;20.40;99.90
39825;DHT22;25503;52.532;13.640;2023-07-20T11:16:05;20.30;99.90
39825;DHT22;25503;52.532;13.640;2023-07-20T11:18:33;20.30;99.90
39825;DHT22;25503;52.532;13.640;2023-07-20T11:21:01;20.40;99.90
39825;DHT22;25503;52.532;13.640;2023-07-20T11:23:27;20.30;99.90
39825;DHT22;25503;52.532;13.640;2023-07-20T11:25:54;20.40;99.90
39825;DHT22;25503;52.532;13.640;2023-07-20T11:28:20;20.50;99.90
39825;DHT22;25503;52.532;13.640;2023-07-20T11:30:51;20.60;99.90
39825;DHT22;25503;52.532;13.640;2023-07-20T11:33:17;20.80;99.90
39825;DHT22;25503;52.532;13.640;2023-07-20T11:35:44;21.00;99.90
39825;DHT22;25503;52.532;13.640;2023-07-20T11:38:09;21.20;99.90
39825;DHT22;25503;52.532;13.640;2023-07-20T11:40:35;21.40;99.90
39825;DHT22;25503;52.532;13.640;2023-07-20T11:43:01;21.50;99.90
39825;DHT22;25503;52.532;13.640;2023-07-20T11:45:27;21.60;99.90
39825;DHT22;25503;52.532;13.640;2023-07-20T11:47:58;21.60;99.90
39825;DHT22;25503;52.532;13.640;2023-07-20T11:50:24;21.50;99.90
39825;DHT22;25503;52.532;13.640;2023-07-20T11:52:49;21.40;99.90
39825;DHT22;25503;52.532;13.640;2023-07-20T11:55:15;21.20;99.90
39825;DHT22;25503;52.532;13.640;2023-07-20T11:57:41;21.30;99.90
39825;DHT22;25503;52.532;13.640;2023-07-20T12:00:09;21.20;99.90
39825;DHT22;25503;52.532;13.640;2023-07-20T12:02:37;21.20;99.90
39825;DHT22;25503;52.532;13.640;2023-07-20T12:05:05;21.30;99.90
39825;DHT22;25503;52.532;13.640;2023-07-20T12:07:35;21.50;99.90
39825;DHT22;25503;52.532;13.640;2023-07-20T12:10:10;21.80;99.90
39825;DHT22;25503;52.532;13.640;2023-07-20T12:12:40;22.10;99.90
39825;DHT22;25503;52.532;13.640;2023-07-20T12:15:14;22.20;99.90
39825;DHT22;25503;52.532;13.640;2023-07-20T12:17:49;22.40;99.90
39825;DHT22;25503;52.532;13.640;2023-07-20T12:22:52;22.10;99.90
39825;DHT22;25503;52.532;13.640;2023-07-20T12:25:19;21.90;99.90
39825;DHT22;25503;52.532;13.640;2023-07-20T12:27:46;21.70;99.90
39825;DHT22;25503;52.532;13.640;2023-07-20T12:30:13;21.50;99.90
39825;DHT22;25503;52.532;13.640;2023-07-20T12:32:42;21.40;99.90
39825;DHT22;25503;52.532;13.640;2023-07-20T12:35:08;21.30;99.90
39825;DHT22;25503;52.532;13.640;2023-07-20T12:37:33;21.20;99.90
39825;DHT22;25503;52.532;13.640;2023-07-20T12:39:59;21.10;99.90
39825;DHT22;25503;52.532;13.640;2023-07-20T12:42:24;21.00;99.90
39825;DHT22;25503;52.532;13.640;2023-07-20T12:44:50;20.90;99.90
39825;DHT22;25503;52.532;13.640;2023-07-20T12:47:17;20.70;99.90
39825;DHT22;25503;52.532;13.640;2023-07-20T12:49:43;20.50;99.90
39825;DHT22;25503;52.532;13.640;2023-07-20T12:52:10;20.60;99.90
39825;DHT22;25503;52.532;13.640;2023-07-20T12:54:36;20.50;99.90
39825;DHT22;25503;52.532;13.640;2023-07-20T12:57:02;20.70;99.90
39825;DHT22;25503;52.532;13.640;2023-07-20T12:59:29;20.90;99.90
39825;DHT22;25503;52.532;13.640;2023-07-20T13:01:54;21.10;99.90
39825;DHT22;25503;52.532;13.640;2023-07-20T13:04:20;21.30;99.90
39825;DHT22;25503;52.532;13.640;2023-07-20T13:06:45;21.50;99.90
39825;DHT22;25503;52.532;13.640;2023-07-20T13:09:11;21.70;99.90
39825;DHT22;25503;52.532;13.640;2023-07-20T13:11:36;21.90;99.90
39825;DHT22;25503;52.532;13.640;2023-07-20T13:14:02;22.10;99.90
39825;DHT22;25503;52.532;13.640;2023-07-20T13:16:28;22.10;99.90
39825;DHT22;25503;52.532;13.640;2023-07-20T13:18:53;22.30;99.90
39825;DHT22;25503;52.532;13.640;2023-07-20T13:21:19;22.50;99.90
39825;DHT22;25503;52.532;13.640;2023-07-20T13:23:48;22.70;99.90
39825;DHT22;25503;52.532;13.640;2023-07-20T13:26:15;22.80;99.90
39825;DHT22;25503;52.532;13.640;2023-07-20T13:28:41;22.80;99.90
39825;DHT22;25503;52.532;13.640;2023-07-20T13:31:06;23.00;99.90
39825;DHT22;25503;52.532;13.640;2023-07-20T13:33:34;23.10;99.90
39825;DHT22;25503;52.532;13.640;2023-07-20T13:36:00;23.10;99.90
39825;DHT22;25503;52.532;13.640;2023-07-20T13:38:26;23.00;99.90
39825;DHT22;25503;52.532;13.640;2023-07-20T13:40:52;23.00;99.90
39825;DHT22;25503;52.532;13.640;2023-07-20T13:43:17;23.10;99.90
39825;DHT22;25503;52.532;13.640;2023-07-20T13:45:43;23.20;99.90
39825;DHT22;25503;52.532;13.640;2023-07-20T13:48:09;23.20;99.90
39825;DHT22;25503;52.532;13.640;2023-07-20T13:50:34;23.20;99.90
39825;DHT22;25503;52.532;13.640;2023-07-20T13:53:00;23.30;99.90
39825;DHT22;25503;52.532;13.640;2023-07-20T13:55:28;23.40;99.90
39825;DHT22;25503;52.532;13.640;2023-07-20T13:57:53;23.40;99.90
39825;DHT22;25503;52.532;13.640;2023-07-20T14:00:19;23.40;99.90
39825;DHT22;25503;52.532;13.640;2023-07-20T14:02:45;23.50;99.90
39825;DHT22;25503;52.532;13.640;2023-07-20T14:05:10;23.50;99.90
39825;DHT22;25503;52.532;13.640;2023-07-20T14:07:36;23.60;99.90
39825;DHT22;25503;52.532;13.640;2023-07-20T14:10:02;23.60;99.90
39825;DHT22;25503;52.532;13.640;2023-07-20T14:12:28;23.60;99.90
39825;DHT22;25503;52.532;13.640;2023-07-20T14:14:54;23.60;99.90
39825;DHT22;25503;52.532;13.640;2023-07-20T14:17:21;23.60;99.90
39825;DHT22;25503;52.532;13.640;2023-07-20T14:19:47;23.60;99.90
39825;DHT22;25503;52.532;13.640;2023-07-20T14:22:12;23.50;99.90
39825;DHT22;25503;52.532;13.640;2023-07-20T14:24:38;23.50;99.90
39825;DHT22;25503;52.532;13.640;2023-07-20T14:27:04;23.70;99.90
39825;DHT22;25503;52.532;13.640;2023-07-20T14:29:30;23.70;99.90
39825;DHT22;25503;52.532;13.640;2023-07-20T14:31:57;23.90;99.90
39825;DHT22;25503;52.532;13.640;2023-07-20T14:34:22;23.90;99.90
39825;DHT22;25503;52.532;13.640;2023-07-20T14:36:48;23.80;99.90
39825;DHT22;25503;52.532;13.640;2023-07-20T14:39:15;23.60;99.90
39825;DHT22;25503;52.532;13.640;2023-07-20T14:41:40;23.40;99.90
39825;DHT22;25503;52.532;13.640;2023-07-20T14:44:06;23.40;99.90
39825;DHT22;25503;52.532;13.640;2023-07-20T14:46:32;23.30;99.90
39825;DHT22;25503;52.532;13.640;2023-07-20T14:48:57;23.30;99.90
39825;DHT22;25503;52.532;13.640;2023-07-20T14:51:24;23.30;99.90
39825;DHT22;25503;52.532;13.640;2023-07-20T14:53:49;23.30;99.90
39825;DHT22;25503;52.532;13.640;2023-07-20T14:56:15;23.10;99.90
39825;DHT22;25503;52.532;13.640;2023-07-20T14:58:40;23.10;99.90
39825;DHT22;25503;52.532;13.640;2023-07-20T15:01:06;23.10;99.90
39825;DHT22;25503;52.532;13.640;2023-07-20T15:03:31;23.10;99.90
39825;DHT22;25503;52.532;13.640;2023-07-20T15:05:57;23.20;99.90
39825;DHT22;25503;52.532;13.640;2023-07-20T15:08:23;23.30;99.90
39825;DHT22;25503;52.532;13.640;2023-07-20T15:10:49;23.20;99.90
39825;DHT22;25503;52.532;13.640;2023-07-20T15:13:15;23.20;99.90
39825;DHT22;25503;52.532;13.640;2023-07-20T15:15:41;23.20;99.90
39825;DHT22;25503;52.532;13.640;2023-07-20T15:18:08;23.20;99.90
39825;DHT22;25503;52.532;13.640;2023-07-20T15:20:34;23.20;99.90
39825;DHT22;25503;52.532;13.640;2023-07-20T15:22:59;23.30;99.90
39825;DHT22;25503;52.532;13.640;2023-07-20T15:25:25;23.20;99.90
39825;DHT22;25503;52.532;13.640;2023-07-20T15:27:50;23.20;99.90